Time;durP1;ratioP1;P1;durP2;ratioP2;P2;SDS_P1;SDS_P2;PMS_P1;PMS_P2;Temp;Humidity;BMP_temperature;BMP_pressure;BME280_temperature;BME280_humidity;BME280_pressure;Samples;Min_cycle;Max_cycle;Signal;HPM_P1;HPM_P2
2023/02/28 00:00:29;;;;;;;;;;;5.20;64.80;;;3.87;51.72;101957.38;4990557;28;19926;-76
2023/02/28 00:02:57;;;;;;;;;;;5.20;64.80;;;3.86;51.79;101958.34;4989375;28;19941;-76
2023/02/28 00:05:26;;;;;;;;;;;5.20;65.00;;;3.84;52.11;101963.75;4981245;28;19930;-76
2023/02/28 00:07:53;;;;;;;;;;;5.10;65.00;;;3.81;52.09;101958.75;4990881;28;19926;-76
2023/02/28 00:10:22;;;;;;;;;;;5.20;65.00;;;3.80;51.99;101957.03;4988407;28;19930;-76
2023/02/28 00:12:50;;;;;;;;;;;5.20;64.90;;;3.81;52.20;101964.03;4983920;28;19929;-76
2023/02/28 00:15:17;;;;;;;;;;;5.20;64.80;;;3.84;52.01;101965.53;4988430;28;19929;-76
2023/02/28 00:17:44;;;;;;;;;;;5.20;64.70;;;3.82;52.15;101964.84;4989842;28;19926;-76
2023/02/28 00:20:14;;;;;;;;;;;5.20;64.80;;;3.80;52.11;101966.75;4989970;28;19938;-76
2023/02/28 00:22:42;;;;;;;;;;;5.20;64.90;;;3.80;52.02;101966.75;4989949;28;21757;-76
2023/02/28 00:25:11;;;;;;;;;;;5.20;64.90;;;3.85;52.01;101961.94;4987554;28;20358;-76
2023/02/28 00:27:39;;;;;;;;;;;5.10;64.60;;;3.80;52.05;101966.75;4972809;28;19937;-76
2023/02/28 00:30:10;;;;;;;;;;;5.10;64.60;;;3.80;51.62;101958.84;4981018;28;20029;-76
2023/02/28 00:32:38;;;;;;;;;;;5.10;64.60;;;3.77;51.70;101962.59;4989809;28;19972;-76
2023/02/28 00:35:06;;;;;;;;;;;5.10;64.50;;;3.75;51.95;101963.69;4982346;28;20317;-76
2023/02/28 00:37:35;;;;;;;;;;;5.10;64.60;;;3.73;51.73;101961.19;4990485;28;20404;-77
2023/02/28 00:40:04;;;;;;;;;;;5.10;64.40;;;3.71;51.81;101970.19;4988040;28;20408;-76
2023/02/28 00:42:31;;;;;;;;;;;5.10;64.50;;;3.72;51.85;101961.31;4987668;28;20290;-76
2023/02/28 00:44:58;;;;;;;;;;;5.10;64.40;;;3.69;51.87;101967.69;4988918;28;19934;-76
2023/02/28 00:47:25;;;;;;;;;;;5.10;64.50;;;3.67;52.01;101964.34;4990116;28;19929;-76
2023/02/28 00:49:52;;;;;;;;;;;5.00;64.40;;;3.64;52.05;101961.13;4968478;28;19929;-76
2023/02/28 00:52:19;;;;;;;;;;;5.00;64.40;;;3.63;51.76;101962.09;4989425;28;19925;-76
2023/02/28 00:54:47;;;;;;;;;;;5.00;64.40;;;3.60;52.12;101961.38;4986520;28;19926;-76
2023/02/28 00:57:15;;;;;;;;;;;5.00;64.40;;;3.61;51.66;101970.13;4982619;28;19930;-76
2023/02/28 00:59:42;;;;;;;;;;;5.00;64.40;;;3.56;51.68;101965.25;4989420;28;19929;-76
2023/02/28 01:02:09;;;;;;;;;;;4.90;64.50;;;3.54;52.14;101972.44;4989969;28;19933;-77
2023/02/28 01:04:37;;;;;;;;;;;4.90;64.60;;;3.53;52.25;101975.22;4980165;28;20057;-76
2023/02/28 01:07:04;;;;;;;;;;;4.90;64.60;;;3.52;51.88;101974.38;4984372;28;20017;-76
2023/02/28 01:09:31;;;;;;;;;;;4.90;64.60;;;3.51;52.23;101979.75;4987236;28;19929;-76
2023/02/28 01:12:00;;;;;;;;;;;4.90;64.70;;;3.47;52.03;101979.22;4987939;28;19926;-76
2023/02/28 01:14:27;;;;;;;;;;;4.80;64.60;;;3.45;52.14;101978.47;4971400;28;19933;-77
2023/02/28 01:16:54;;;;;;;;;;;4.80;64.60;;;3.48;52.12;101972.13;4987986;28;19926;-76
2023/02/28 01:19:21;;;;;;;;;;;4.80;64.60;;;3.46;51.94;101981.94;4972730;28;19941;-76
2023/02/28 01:21:48;;;;;;;;;;;4.80;64.60;;;3.45;51.76;101980.28;4972225;28;19929;-76
2023/02/28 01:24:15;;;;;;;;;;;4.80;64.60;;;3.42;51.94;101981.38;4989685;28;19932;-76
2023/02/28 01:26:42;;;;;;;;;;;4.80;64.60;;;3.36;52.36;101980.06;4967024;28;19937;-76
2023/02/28 01:29:10;;;;;;;;;;;4.70;64.80;;;3.40;52.14;101978.03;4976062;28;19937;-76
2023/02/28 01:31:37;;;;;;;;;;;4.70;64.80;;;3.40;52.26;101974.56;4976919;28;19930;-76
2023/02/28 01:34:04;;;;;;;;;;;4.70;64.80;;;3.36;52.13;101968.69;4975700;28;19930;-76
2023/02/28 01:36:31;;;;;;;;;;;4.70;64.80;;;3.34;52.07;101982.00;4991612;28;19957;-76
2023/02/28 01:38:58;;;;;;;;;;;4.70;64.90;;;3.34;52.14;101975.91;4988385;28;19936;-76
2023/02/28 01:41:29;;;;;;;;;;;4.80;65.00;;;3.34;51.91;101975.91;4992676;28;19930;-76
2023/02/28 01:44:03;;;;;;;;;;;4.70;64.80;;;3.32;52.16;101968.13;4975250;28;19976;-76
2023/02/28 01:46:34;;;;;;;;;;;4.70;64.70;;;3.31;51.90;101969.06;4992241;28;20425;-76
2023/02/28 01:49:09;;;;;;;;;;;4.70;64.70;;;3.30;52.09;101969.19;4989364;28;19941;-76
2023/02/28 01:51:45;;;;;;;;;;;4.70;64.80;;;3.27;52.21;101967.69;4988514;28;19937;-76
2023/02/28 01:54:16;;;;;;;;;;;4.60;64.70;;;3.24;52.18;101959.19;4989908;28;19929;-76
2023/02/28 01:56:46;;;;;;;;;;;4.60;64.80;;;3.23;51.75;101962.78;4985591;28;20253;-76
2023/02/28 01:59:16;;;;;;;;;;;4.60;64.80;;;3.21;52.01;101959.41;4975378;28;20015;-76
2023/02/28 02:01:44;;;;;;;;;;;4.60;64.80;;;3.16;52.39;101967.69;4975482;28;20420;-76
2023/02/28 02:04:11;;;;;;;;;;;4.60;65.10;;;3.20;52.32;101963.03;4969832;28;20287;-76
2023/02/28 02:06:41;;;;;;;;;;;4.60;65.00;;;3.23;52.28;101952.22;4974810;28;19934;-76
2023/02/28 02:09:10;;;;;;;;;;;4.60;64.90;;;3.21;52.21;101946.22;4975466;28;19930;-76
2023/02/28 02:11:40;;;;;;;;;;;4.50;64.90;;;3.20;52.07;101940.13;4992505;28;19929;-76
2023/02/28 02:14:40;;;;;;;;;;;4.50;64.90;;;3.14;52.25;101939.81;4990180;28;20017;-76
2023/02/28 02:17:21;;;;;;;;;;;4.50;65.10;;;3.10;52.61;101932.16;4965179;28;20024;-76
2023/02/28 02:20:34;;;;;;;;;;;4.50;65.20;;;3.10;52.45;101931.31;4967972;28;19930;-76
2023/02/28 02:23:33;;;;;;;;;;;4.50;65.10;;;3.14;52.05;101927.47;4991964;28;19934;-76
2023/02/28 02:26:16;;;;;;;;;;;4.50;64.90;;;3.15;52.14;101930.94;4988115;28;19925;-76
2023/02/28 02:29:08;;;;;;;;;;;4.50;64.90;;;3.16;51.95;101922.06;4992831;28;20341;-76
2023/02/28 02:32:11;;;;;;;;;;;4.50;64.90;;;3.15;52.08;101923.84;4975011;28;19925;-76
2023/02/28 02:34:46;;;;;;;;;;;4.50;64.80;;;3.12;51.97;101934.63;4989555;28;19929;-76
2023/02/28 02:37:32;;;;;;;;;;;4.50;64.80;;;3.09;52.09;101934.91;4988482;28;19930;-76
2023/02/28 02:40:05;;;;;;;;;;;4.40;64.50;;;3.03;52.14;101931.00;4991031;28;19946;-77
2023/02/28 02:42:40;;;;;;;;;;;4.40;64.50;;;2.99;52.17;101934.84;4973152;28;20469;-76
2023/02/28 02:45:10;;;;;;;;;;;4.40;64.70;;;2.98;52.05;101932.34;4992469;28;19926;-76
2023/02/28 02:47:38;;;;;;;;;;;4.40;64.60;;;2.95;52.24;101927.31;4974677;28;20394;-76
2023/02/28 02:50:12;;;;;;;;;;;4.40;64.70;;;2.95;52.16;101929.94;4990928;28;19926;-76
2023/02/28 02:52:42;;;;;;;;;;;4.40;64.80;;;2.94;52.30;101937.00;4989238;28;19988;-76
2023/02/28 02:55:12;;;;;;;;;;;4.40;64.60;;;2.94;52.02;101930.91;4974711;28;19929;-76
2023/02/28 02:57:43;;;;;;;;;;;4.30;64.70;;;2.91;52.26;101931.16;4973890;28;19952;-76
2023/02/28 03:00:12;;;;;;;;;;;4.30;64.80;;;2.94;52.33;101938.81;4974859;28;19932;-76
2023/02/28 03:02:40;;;;;;;;;;;4.30;64.80;;;2.93;52.09;101937.09;4989024;28;19945;-76
2023/02/28 03:05:15;;;;;;;;;;;4.30;64.70;;;2.91;51.84;101937.25;4990102;28;19930;-77
2023/02/28 03:07:42;;;;;;;;;;;4.30;64.70;;;2.86;52.09;101936.78;4981681;28;19944;-76
2023/02/28 03:10:31;;;;;;;;;;;4.40;64.70;;;2.84;52.04;101936.09;4974452;28;20421;-76
2023/02/28 03:13:10;;;;;;;;;;;4.30;64.70;;;2.88;52.06;101932.25;4990428;28;19929;-76
2023/02/28 03:15:44;;;;;;;;;;;4.20;64.70;;;2.84;52.19;101929.00;4982213;28;19933;-76
2023/02/28 03:18:14;;;;;;;;;;;4.20;64.70;;;2.84;52.03;101928.19;4992062;28;19926;-76
2023/02/28 03:20:53;;;;;;;;;;;4.20;64.80;;;2.79;52.29;101928.56;4971407;28;19932;-76
2023/02/28 03:23:24;;;;;;;;;;;4.20;64.80;;;2.78;52.16;101926.88;4979981;28;20393;-76
2023/02/28 03:25:57;;;;;;;;;;;4.20;64.80;;;2.76;52.25;101931.44;4991711;28;19926;-77
2023/02/28 03:28:32;;;;;;;;;;;4.20;65.00;;;2.75;52.51;101926.28;4991427;28;19930;-77
2023/02/28 03:31:03;;;;;;;;;;;4.10;65.10;;;2.75;52.35;101935.03;4991445;28;19929;-76
2023/02/28 03:33:34;;;;;;;;;;;4.10;65.20;;;2.73;52.75;101930.81;4990088;28;19933;-76
2023/02/28 03:36:05;;;;;;;;;;;4.30;65.30;;;2.71;52.49;101935.41;4973338;28;19933;-76
2023/02/28 03:38:36;;;;;;;;;;;4.30;65.40;;;2.72;52.53;101931.78;4991442;28;19930;-76
2023/02/28 03:41:07;;;;;;;;;;;4.10;65.30;;;2.69;52.59;101932.91;4973365;28;19934;-76
2023/02/28 03:43:37;;;;;;;;;;;4.10;65.40;;;2.68;52.64;101933.84;5033716;23;20373;-77
2023/02/28 03:46:10;;;;;;;;;;;4.10;65.50;;;2.69;52.78;101935.53;5002581;28;20016;-77
2023/02/28 03:48:42;;;;;;;;;;;4.10;65.60;;;2.73;52.74;101941.38;4988231;28;19933;-76
2023/02/28 03:51:14;;;;;;;;;;;4.10;65.70;;;2.71;52.85;101943.28;4971729;28;20317;-77
2023/02/28 03:53:45;;;;;;;;;;;4.10;65.60;;;2.72;52.80;101942.34;4982032;28;19926;-77
2023/02/28 03:56:15;;;;;;;;;;;4.10;65.70;;;2.72;52.45;101937.06;5000133;28;19976;-77
2023/02/28 03:58:45;;;;;;;;;;;4.10;65.50;;;2.72;52.56;101942.34;4989611;28;20386;-77
2023/02/28 04:01:17;;;;;;;;;;;4.10;65.30;;;2.70;52.61;101931.94;4991422;28;19926;-76
2023/02/28 04:03:44;;;;;;;;;;;4.00;65.10;;;2.68;52.51;101940.91;4993705;28;19929;-77
2023/02/28 04:06:17;;;;;;;;;;;4.10;65.20;;;2.64;52.31;101937.69;4997958;28;19940;-77
2023/02/28 04:08:44;;;;;;;;;;;4.00;65.10;;;2.62;52.42;101936.97;4989605;28;19930;-78
2023/02/28 04:11:19;;;;;;;;;;;4.00;65.00;;;2.62;52.43;101946.66;4991133;28;19929;-77
2023/02/28 04:13:46;;;;;;;;;;;4.00;65.10;;;2.60;52.19;101948.59;4994426;28;19929;-76
2023/02/28 04:16:13;;;;;;;;;;;4.00;65.00;;;2.57;52.49;101942.59;5000690;28;19930;-77
2023/02/28 04:18:40;;;;;;;;;;;4.00;65.20;;;2.56;52.55;101940.94;4988532;28;20390;-77
2023/02/28 04:21:08;;;;;;;;;;;4.00;65.10;;;2.54;52.30;101948.13;4990718;28;20688;-77
2023/02/28 04:23:36;;;;;;;;;;;3.90;65.20;;;2.55;52.79;101939.25;4993099;28;19999;-77
2023/02/28 04:26:03;;;;;;;;;;;4.00;65.20;;;2.52;52.37;101944.75;5001423;28;20332;-77
2023/02/28 04:28:30;;;;;;;;;;;3.90;65.10;;;2.53;52.37;101950.88;4990735;28;20031;-76
2023/02/28 04:30:58;;;;;;;;;;;3.90;65.20;;;2.51;52.46;101943.09;4989975;28;19926;-77
2023/02/28 04:33:25;;;;;;;;;;;3.90;65.10;;;2.50;52.51;101946.69;4983470;28;20409;-77
2023/02/28 04:35:59;;;;;;;;;;;3.90;65.20;;;2.50;52.59;101948.50;5003710;28;19925;-77
2023/02/28 04:38:26;;;;;;;;;;;3.90;65.10;;;2.50;52.43;101957.22;4991752;28;19926;-77
2023/02/28 04:40:54;;;;;;;;;;;3.90;65.10;;;2.47;52.34;101952.19;4989884;28;20418;-77
2023/02/28 04:43:21;;;;;;;;;;;3.90;65.00;;;2.45;52.31;101950.66;4991228;28;19930;-77
2023/02/28 04:45:48;;;;;;;;;;;3.90;65.00;;;2.45;52.53;101961.19;4982266;28;19937;-77
2023/02/28 04:48:15;;;;;;;;;;;3.80;65.20;;;2.42;52.60;101961.41;4993217;28;19930;-77
2023/02/28 04:50:42;;;;;;;;;;;3.80;65.00;;;2.42;52.55;101967.53;4990276;28;20413;-77
2023/02/28 04:53:09;;;;;;;;;;;3.80;65.00;;;2.43;52.29;101961.28;4988061;28;19969;-77
2023/02/28 04:55:36;;;;;;;;;;;3.80;65.00;;;2.41;52.42;101959.75;4995507;28;19929;-79
2023/02/28 04:58:04;;;;;;;;;;;3.80;64.90;;;2.40;52.21;101958.91;4994015;28;20291;-79
2023/02/28 05:00:31;;;;;;;;;;;3.80;64.90;;;2.39;52.46;101965.16;4989597;28;19933;-79
2023/02/28 05:02:58;;;;;;;;;;;3.80;64.90;;;2.39;52.29;101961.66;4970796;28;19930;-80
2023/02/28 05:05:25;;;;;;;;;;;3.80;64.90;;;2.36;52.31;101962.75;4999639;28;19929;-81
2023/02/28 05:07:53;;;;;;;;;;;3.80;64.90;;;2.35;52.25;101961.06;4982003;28;19925;-80
2023/02/28 05:10:20;;;;;;;;;;;3.70;64.90;;;2.36;52.20;101954.00;4989775;28;19930;-78
2023/02/28 05:12:47;;;;;;;;;;;3.70;65.00;;;2.34;52.33;101969.91;4988864;28;19937;-80
2023/02/28 05:15:17;;;;;;;;;;;3.80;65.00;;;2.33;52.27;101970.88;4992596;28;19980;-80
2023/02/28 05:17:44;;;;;;;;;;;3.70;65.00;;;2.29;52.49;101965.03;4992552;28;19929;-80
2023/02/28 05:20:13;;;;;;;;;;;3.70;65.00;;;2.30;52.46;101973.75;4990312;28;19937;-80
2023/02/28 05:22:40;;;;;;;;;;;3.70;65.10;;;2.27;52.46;101969.56;4980912;28;20021;-80
2023/02/28 05:25:11;;;;;;;;;;;3.70;65.10;;;2.28;52.37;101973.88;4996748;28;19974;-80
2023/02/28 05:27:38;;;;;;;;;;;3.70;65.10;;;2.26;52.57;101980.22;4987993;28;19926;-80
2023/02/28 05:30:06;;;;;;;;;;;3.70;65.10;;;2.26;52.45;101977.59;4990162;28;19976;-80
2023/02/28 05:32:35;;;;;;;;;;;3.70;65.20;;;2.24;52.27;101972.41;4989403;28;19944;-80
2023/02/28 05:35:02;;;;;;;;;;;3.60;65.00;;;2.26;52.35;101974.97;4978387;28;20040;-80
2023/02/28 05:37:29;;;;;;;;;;;3.60;65.00;;;2.24;52.28;101976.84;4980016;28;19930;-79
2023/02/28 05:39:56;;;;;;;;;;;3.60;64.90;;;2.24;52.20;101974.22;4981534;28;20386;-80
2023/02/28 05:42:23;;;;;;;;;;;3.60;64.90;;;2.21;52.59;101985.00;4988248;28;20379;-80
2023/02/28 05:44:50;;;;;;;;;;;3.60;65.00;;;2.19;52.23;101986.91;4968446;28;20382;-80
2023/02/28 05:47:16;;;;;;;;;;;3.60;64.90;;;2.17;52.45;101991.47;4995957;28;19930;-80
2023/02/28 05:49:45;;;;;;;;;;;3.60;65.10;;;2.16;52.39;101987.16;4965086;28;20332;-80
2023/02/28 05:52:12;;;;;;;;;;;3.60;65.10;;;2.17;52.07;101989.66;4972082;28;20295;-80
2023/02/28 05:54:39;;;;;;;;;;;3.50;65.00;;;2.14;52.46;101991.69;4988182;28;19930;-80
2023/02/28 05:57:05;;;;;;;;;;;3.60;65.00;;;2.10;52.38;101995.50;4997217;28;19936;-79
2023/02/28 05:59:32;;;;;;;;;;;3.50;65.00;;;2.08;52.35;101995.63;4977378;28;20301;-79
2023/02/28 06:01:59;;;;;;;;;;;3.50;65.00;;;2.06;52.57;101992.28;4989549;28;19973;-79
2023/02/28 06:04:26;;;;;;;;;;;3.50;65.20;;;2.08;52.38;101997.44;4988498;28;20287;-79
2023/02/28 06:06:57;;;;;;;;;;;3.50;65.00;;;2.05;52.57;101996.72;4986287;28;19926;-79
2023/02/28 06:09:24;;;;;;;;;;;3.50;65.20;;;2.05;52.54;102003.78;4989604;28;19957;-78
2023/02/28 06:11:51;;;;;;;;;;;3.40;65.00;;;2.04;52.58;102004.72;4976906;28;19930;-79
2023/02/28 06:14:19;;;;;;;;;;;3.40;65.20;;;2.04;52.67;102010.81;4989214;28;19926;-79
2023/02/28 06:16:47;;;;;;;;;;;3.40;65.30;;;2.05;52.56;102011.69;4999430;28;19952;-82
2023/02/28 06:19:14;;;;;;;;;;;3.40;65.20;;;2.04;52.81;102002.09;4990037;28;19926;-78
2023/02/28 06:21:42;;;;;;;;;;;3.50;65.40;;;2.06;52.46;102019.44;4987905;28;19930;-78
2023/02/28 06:24:10;;;;;;;;;;;3.40;65.20;;;2.04;52.63;102023.13;4981642;28;19933;-78
2023/02/28 06:26:38;;;;;;;;;;;3.40;65.40;;;2.05;52.57;102028.28;4993270;28;20008;-78
2023/02/28 06:29:05;;;;;;;;;;;3.40;65.30;;;2.10;52.66;102024.44;4991412;28;19941;-78
2023/02/28 06:31:32;;;;;;;;;;;3.40;65.50;;;2.06;52.40;102026.50;4992786;28;19968;-78
2023/02/28 06:33:59;;;;;;;;;;;3.40;65.40;;;2.05;52.51;102023.03;4974753;28;20349;-79
2023/02/28 06:36:25;;;;;;;;;;;3.40;65.40;;;2.05;52.83;102020.41;4993567;28;19937;-78
2023/02/28 06:38:55;;;;;;;;;;;3.40;65.60;;;2.06;52.52;102024.72;4991837;28;19934;-78
2023/02/28 06:41:25;;;;;;;;;;;3.40;65.40;;;2.04;52.42;102021.34;4991014;28;19930;-78
2023/02/28 06:43:52;;;;;;;;;;;3.40;65.40;;;2.01;52.76;102023.38;4991142;28;19937;-78
2023/02/28 06:46:19;;;;;;;;;;;3.40;65.40;;;2.01;52.73;102032.13;5002157;28;19929;-78
2023/02/28 06:48:46;;;;;;;;;;;3.40;65.60;;;2.03;52.86;102027.56;4992528;28;19930;-78
2023/02/28 06:51:16;;;;;;;;;;;3.40;65.60;;;2.02;53.03;102031.16;4989535;28;19932;-78
2023/02/28 06:53:43;;;;;;;;;;;3.40;65.80;;;2.02;52.98;102023.25;4992719;28;19930;-78
2023/02/28 06:56:12;;;;;;;;;;;3.40;65.80;;;2.01;53.50;102026.00;4993601;28;20078;-78
2023/02/28 06:58:41;;;;;;;;;;;3.40;66.10;;;2.02;53.29;102033.78;4988537;28;19926;-79
2023/02/28 07:01:08;;;;;;;;;;;3.40;66.20;;;2.01;53.47;102029.47;4992298;28;20325;-79
2023/02/28 07:03:35;;;;;;;;;;;3.40;66.40;;;2.00;53.76;102033.06;4993031;28;19929;-79
2023/02/28 07:06:03;;;;;;;;;;;3.40;66.50;;;2.00;53.64;102033.06;4992485;28;19929;-79
2023/02/28 07:08:31;;;;;;;;;;;3.40;66.60;;;2.02;53.69;102032.94;4983950;28;19933;-80
2023/02/28 07:10:59;;;;;;;;;;;3.40;66.70;;;2.07;53.68;102043.97;4993595;28;19937;-80
2023/02/28 07:13:26;;;;;;;;;;;3.40;66.70;;;2.09;53.82;102043.84;4991403;28;20472;-79
2023/02/28 07:16:00;;;;;;;;;;;3.40;66.80;;;2.12;53.68;102036.56;4985158;28;19929;-79
2023/02/28 07:18:27;;;;;;;;;;;3.40;66.80;;;2.21;53.53;102040.28;4990010;28;19934;-79
2023/02/28 07:20:54;;;;;;;;;;;3.50;67.00;;;2.24;53.25;102038.22;4990992;28;19956;-79
2023/02/28 07:23:22;;;;;;;;;;;3.50;66.70;;;2.22;53.50;102040.16;4991600;28;19929;-79
2023/02/28 07:25:50;;;;;;;;;;;3.50;66.80;;;2.27;53.54;102053.78;4989320;28;19934;-79
2023/02/28 07:28:17;;;;;;;;;;;3.60;66.80;;;2.29;53.52;102045.75;4991522;28;19934;-79
2023/02/28 07:30:44;;;;;;;;;;;3.60;66.70;;;2.30;53.46;102047.47;4994030;28;20016;-79
2023/02/28 07:33:12;;;;;;;;;;;3.60;66.80;;;2.34;53.67;102051.50;4996222;28;19930;-79
2023/02/28 07:35:39;;;;;;;;;;;3.60;66.80;;;2.41;53.26;102058.00;4990210;28;19937;-80
2023/02/28 07:38:07;;;;;;;;;;;3.60;66.60;;;2.42;53.10;102054.41;4989868;28;20033;-79
2023/02/28 07:40:34;;;;;;;;;;;3.60;66.60;;;2.45;53.04;102054.19;4993669;28;19926;-80
2023/02/28 07:43:01;;;;;;;;;;;3.70;66.60;;;2.53;52.93;102048.28;4989771;28;19933;-79
2023/02/28 07:45:29;;;;;;;;;;;3.70;66.40;;;2.56;52.94;102051.53;4989765;28;20394;-82
2023/02/28 07:47:56;;;;;;;;;;;3.70;66.30;;;2.61;52.81;102051.19;4993564;28;19940;-79
2023/02/28 07:50:25;;;;;;;;;;;3.70;66.30;;;2.63;52.46;102049.25;4978946;28;19930;-79
2023/02/28 07:52:52;;;;;;;;;;;3.80;66.10;;;2.66;52.51;102048.19;4987897;28;19930;-79
2023/02/28 07:55:19;;;;;;;;;;;3.80;66.00;;;2.70;52.40;102050.47;4986906;28;19929;-79
2023/02/28 07:57:46;;;;;;;;;;;3.80;66.00;;;2.71;52.27;102056.56;4987467;28;19930;-79
2023/02/28 08:00:14;;;;;;;;;;;3.80;65.80;;;2.73;52.35;102052.88;4991070;28;19943;-79
2023/02/28 08:02:41;;;;;;;;;;;3.90;66.00;;;2.74;52.23;102056.34;4976198;28;20012;-79
2023/02/28 08:05:08;;;;;;;;;;;3.80;65.90;;;2.76;52.51;102059.66;4992317;28;19957;-79
2023/02/28 08:07:37;;;;;;;;;;;3.80;66.00;;;2.77;52.22;102066.59;4978306;28;19937;-79
2023/02/28 08:10:05;;;;;;;;;;;3.90;66.10;;;2.81;52.45;102062.78;4990109;28;20020;-79
2023/02/28 08:12:32;;;;;;;;;;;3.90;66.30;;;2.78;52.54;102058.59;4990961;28;19973;-79
2023/02/28 08:14:59;;;;;;;;;;;3.90;66.40;;;2.80;52.83;102069.00;4990035;28;19933;-79
2023/02/28 08:17:26;;;;;;;;;;;3.90;66.60;;;2.80;52.74;102076.91;4971505;28;20330;-79
2023/02/28 08:19:53;;;;;;;;;;;3.90;66.50;;;2.82;52.71;102073.19;4989668;28;19930;-79
2023/02/28 08:22:20;;;;;;;;;;;3.90;66.40;;;2.85;52.62;102074.75;4973269;28;19926;-79
2023/02/28 08:24:49;;;;;;;;;;;3.90;66.60;;;2.87;52.70;102070.19;4988015;28;19945;-79
2023/02/28 08:27:15;;;;;;;;;;;3.90;66.40;;;2.90;52.25;102067.31;4989106;28;20576;-79
2023/02/28 08:29:42;;;;;;;;;;;3.90;66.20;;;2.88;52.17;102069.25;4995631;28;19930;-79
2023/02/28 08:32:09;;;;;;;;;;;3.90;66.20;;;2.92;51.98;102065.38;4994932;28;19929;-79
2023/02/28 08:34:39;;;;;;;;;;;4.00;65.90;;;2.93;52.12;102055.69;4984268;28;19937;-79
2023/02/28 08:37:06;;;;;;;;;;;4.00;66.00;;;2.96;52.25;102061.56;4999536;28;19930;-79
2023/02/28 08:39:35;;;;;;;;;;;4.00;66.10;;;3.02;52.40;102054.94;4981994;28;19930;-79
2023/02/28 08:42:03;;;;;;;;;;;4.00;66.20;;;3.07;51.87;102052.78;5000615;28;19951;-79
2023/02/28 08:44:30;;;;;;;;;;;4.10;66.10;;;3.06;52.00;102059.84;4971797;28;19933;-79
2023/02/28 08:46:57;;;;;;;;;;;4.10;66.10;;;3.07;51.78;102061.56;4980149;28;19953;-79
2023/02/28 08:49:24;;;;;;;;;;;4.10;66.00;;;3.06;51.33;102054.59;4983517;28;20056;-79
2023/02/28 08:51:51;;;;;;;;;;;4.10;65.00;;;3.07;51.29;102055.41;5000260;28;19937;-79
2023/02/28 08:54:19;;;;;;;;;;;4.10;65.00;;;3.08;50.30;102062.38;5001436;28;19937;-79
2023/02/28 08:56:46;;;;;;;;;;;4.10;64.20;;;3.10;50.75;102063.94;4979958;28;19945;-79
2023/02/28 08:59:15;;;;;;;;;;;4.10;64.40;;;3.10;50.80;102060.47;4988736;28;19934;-79
2023/02/28 09:01:43;;;;;;;;;;;4.10;64.40;;;3.07;49.98;102055.41;5001639;28;19929;-79
2023/02/28 09:04:11;;;;;;;;;;;4.10;63.60;;;2.98;48.58;102054.38;4993481;28;19981;-79
2023/02/28 09:06:38;;;;;;;;;;;4.20;62.40;;;2.87;49.66;102049.09;4980002;28;20261;-78
2023/02/28 09:09:07;;;;;;;;;;;4.10;62.80;;;2.95;49.33;102053.78;4974625;28;19932;-78
2023/02/28 09:11:35;;;;;;;;;;;4.10;62.20;;;2.97;49.60;102052.69;4998203;28;19930;-79
2023/02/28 09:14:04;;;;;;;;;;;4.10;62.80;;;3.02;49.54;102055.78;4992379;28;19984;-78
2023/02/28 09:16:33;;;;;;;;;;;4.10;62.40;;;2.97;48.25;102047.41;4988400;28;19949;-77
2023/02/28 09:19:01;;;;;;;;;;;4.10;61.40;;;3.00;49.25;102044.53;4988782;28;20406;-78
2023/02/28 09:21:28;;;;;;;;;;;4.10;62.20;;;3.04;48.60;102045.97;4997013;28;20653;-77
2023/02/28 09:23:55;;;;;;;;;;;4.10;61.70;;;3.03;48.54;102054.03;4996655;28;20437;-78
2023/02/28 09:26:24;;;;;;;;;;;4.20;61.40;;;2.90;47.60;102043.59;4980814;28;20420;-78
2023/02/28 09:28:52;;;;;;;;;;;4.10;60.20;;;3.02;48.47;102050.53;4997202;28;19942;-77
2023/02/28 09:31:22;;;;;;;;;;;4.20;61.20;;;3.09;48.21;102054.34;4964738;28;20661;-78
2023/02/28 09:33:51;;;;;;;;;;;4.20;60.70;;;3.11;47.41;102051.59;4988528;28;20028;-77
2023/02/28 09:36:19;;;;;;;;;;;4.20;59.70;;;3.12;47.52;102045.34;4985952;28;20413;-78
2023/02/28 09:38:46;;;;;;;;;;;4.20;59.60;;;3.18;47.71;102049.31;4999136;28;19932;-78
2023/02/28 09:41:15;;;;;;;;;;;4.30;60.50;;;3.17;47.24;102048.44;4993123;28;20379;-78
2023/02/28 09:43:46;;;;;;;;;;;4.30;60.00;;;3.20;46.36;102047.38;5015492;23;20024;-77
2023/02/28 09:46:21;;;;;;;;;;;4.30;58.30;;;3.18;46.43;102046.69;5006083;28;20286;-77
2023/02/28 09:48:49;;;;;;;;;;;4.30;58.20;;;3.16;45.90;102046.78;5007151;28;19929;-77
2023/02/28 09:51:29;;;;;;;;;;;4.20;57.70;;;3.16;45.47;102040.66;5011695;28;19929;-77
2023/02/28 09:53:56;;;;;;;;;;;4.20;56.80;;;3.15;45.53;102042.47;5008855;28;19957;-77
2023/02/28 09:56:27;;;;;;;;;;;4.20;57.00;;;3.20;45.48;102044.75;5012509;28;19936;-77
2023/02/28 09:58:57;;;;;;;;;;;4.30;56.90;;;3.25;45.44;102048.66;4985915;28;20378;-77
2023/02/28 10:01:30;;;;;;;;;;;4.30;56.90;;;3.26;45.64;102050.34;5011196;28;19940;-77
2023/02/28 10:04:01;;;;;;;;;;;4.40;56.90;;;3.29;45.32;102042.19;5012500;28;19929;-77
2023/02/28 10:06:34;;;;;;;;;;;4.30;57.40;;;3.26;45.10;102037.16;5011905;28;19933;-77
2023/02/28 10:09:03;;;;;;;;;;;4.40;56.40;;;3.27;44.92;102038.84;5009667;28;19961;-77
2023/02/28 10:11:30;;;;;;;;;;;4.40;57.30;;;3.31;45.56;102032.34;5010847;28;20302;-77
2023/02/28 10:14:04;;;;;;;;;;;4.40;57.00;;;3.38;44.94;102029.22;4993275;28;19937;-77
2023/02/28 10:16:35;;;;;;;;;;;4.40;57.00;;;3.36;44.85;102030.16;5005906;28;19983;-77
2023/02/28 10:19:05;;;;;;;;;;;4.40;57.10;;;3.29;43.96;102030.81;5010038;28;19930;-77
2023/02/28 10:21:40;;;;;;;;;;;4.40;56.20;;;3.26;43.54;102025.78;5011491;28;19932;-77
2023/02/28 10:24:19;;;;;;;;;;;4.40;56.30;;;3.18;43.63;102039.59;5012306;28;19936;-77
2023/02/28 10:26:48;;;;;;;;;;;4.40;55.70;;;3.24;44.02;102027.72;5005767;28;19925;-77
2023/02/28 10:29:15;;;;;;;;;;;4.40;55.10;;;3.24;43.63;102033.00;5004938;28;19934;-78
2023/02/28 10:31:42;;;;;;;;;;;4.40;54.90;;;3.26;43.68;102026.63;5011548;28;20402;-77
2023/02/28 10:34:12;;;;;;;;;;;4.40;55.20;;;3.25;43.50;102029.38;5008378;28;19937;-77
2023/02/28 10:36:43;;;;;;;;;;;4.40;54.60;;;3.25;43.13;102030.22;5009786;28;20413;-77
2023/02/28 10:39:35;;;;;;;;;;;4.40;54.10;;;3.27;43.30;102035.34;5002113;28;19983;-77
2023/02/28 10:42:02;;;;;;;;;;;4.40;54.20;;;3.28;42.65;102016.78;5009867;28;19933;-78
2023/02/28 10:44:31;;;;;;;;;;;4.40;53.90;;;3.23;42.78;102026.03;5011098;28;21585;-78
2023/02/28 10:46:58;;;;;;;;;;;4.40;53.60;;;3.29;42.56;102031.66;5011123;28;19929;-78
2023/02/28 10:49:28;;;;;;;;;;;4.40;53.10;;;3.29;42.32;102012.34;5008691;28;20337;-78
2023/02/28 10:51:59;;;;;;;;;;;4.40;52.90;;;3.28;42.31;102021.25;5006669;28;20301;-77
2023/02/28 10:54:30;;;;;;;;;;;4.40;53.30;;;3.27;41.77;102020.41;5002803;28;20025;-77
2023/02/28 10:57:17;;;;;;;;;;;4.40;52.50;;;3.31;42.21;102019.16;5007604;28;19934;-79
2023/02/28 10:59:45;;;;;;;;;;;4.50;52.50;;;3.35;42.28;102014.47;5006587;28;19929;-78
2023/02/28 11:02:33;;;;;;;;;;;4.50;52.90;;;3.38;42.09;101993.16;5007620;28;20366;-78
2023/02/28 11:05:00;;;;;;;;;;;4.50;52.30;;;3.43;41.69;101996.25;5003374;28;20374;-79
2023/02/28 11:07:29;;;;;;;;;;;4.50;52.40;;;3.41;40.97;101992.88;5006383;28;19934;-77
2023/02/28 11:09:57;;;;;;;;;;;4.50;51.00;;;3.43;41.76;101995.41;5006313;28;20012;-76
2023/02/28 11:12:28;;;;;;;;;;;4.70;52.10;;;3.39;40.83;102001.91;5011466;28;19929;-76
2023/02/28 11:15:17;;;;;;;;;;;4.50;51.00;;;3.38;41.28;102002.88;5009154;28;20016;-76
2023/02/28 11:18:20;;;;;;;;;;;4.50;51.50;;;3.41;41.12;102005.22;5005497;28;19961;-76
2023/02/28 11:20:50;;;;;;;;;;;4.50;51.20;;;3.40;40.99;102024.66;5006540;28;19929;-76
2023/02/28 11:23:19;;;;;;;;;;;4.50;51.40;;;3.39;40.48;101996.63;5010594;28;20686;-76
2023/02/28 11:25:50;;;;;;;;;;;4.50;50.30;;;3.36;40.82;102001.16;5008512;28;19972;-76
2023/02/28 11:28:29;;;;;;;;;;;4.50;51.00;;;3.40;41.17;101998.28;5008632;28;19932;-76
2023/02/28 11:31:06;;;;;;;;;;;4.50;51.40;;;3.37;40.90;101994.13;5011184;28;19933;-76
2023/02/28 11:33:41;;;;;;;;;;;4.50;50.90;;;3.43;41.16;101992.78;5002498;28;19980;-76
2023/02/28 11:36:13;;;;;;;;;;;4.50;51.50;;;3.47;41.34;102002.09;5006452;28;19952;-76